Time;durP1;ratioP1;P1;durP2;ratioP2;P2;SDS_P1;SDS_P2;PMS_P1;PMS_P2;Temp;Humidity;BMP_temperature;BMP_pressure;BME280_temperature;BME280_humidity;BME280_pressure;Samples;Min_cycle;Max_cycle;Signal;HPM_P1;HPM_P2
2023/04/03 00:01:13;;;;;;;;;;;;;;;13.95;50.33;100474.69;5018926;28;19917;-91
2023/04/03 00:04:05;;;;;;;;;;;;;;;13.95;51.18;100466.50;4997801;28;20289;-91
2023/04/03 00:06:57;;;;;;;;;;;;;;;14.04;51.37;100475.38;4993731;28;19921;-90
2023/04/03 00:09:49;;;;;;;;;;;;;;;13.90;51.97;100458.53;4993600;28;19918;-92
2023/04/03 00:12:41;;;;;;;;;;;;;;;13.81;52.70;100466.06;4985738;28;19922;-90
2023/04/03 00:15:30;;;;;;;;;;;;;;;13.60;52.95;100455.25;4993620;28;20377;-90
2023/04/03 00:18:22;;;;;;;;;;;;;;;13.57;52.52;100448.53;4999137;28;19917;-89
2023/04/03 00:21:12;;;;;;;;;;;;;;;13.61;51.86;100451.38;4985205;28;19917;-91
2023/04/03 00:24:04;;;;;;;;;;;;;;;13.62;51.49;100452.97;4993401;28;19918;-90
2023/04/03 00:26:54;;;;;;;;;;;;;;;13.60;51.25;100456.06;4985545;28;19917;-90
2023/04/03 00:29:48;;;;;;;;;;;;;;;13.51;51.04;100468.22;4993925;28;19918;-92
2023/04/03 00:32:37;;;;;;;;;;;;;;;13.53;50.53;100455.00;4989683;28;19922;-91
2023/04/03 00:35:29;;;;;;;;;;;;;;;13.51;50.93;100458.06;4998169;28;20381;-90
2023/04/03 00:38:19;;;;;;;;;;;;;;;13.56;51.37;100452.38;5003592;28;19918;-90
2023/04/03 00:41:11;;;;;;;;;;;;;;;13.58;52.16;100450.13;5003335;28;19918;-90
2023/04/03 00:43:58;;;;;;;;;;;;;;;13.55;51.67;100450.00;5001994;28;19918;-91
2023/04/03 00:46:50;;;;;;;;;;;;;;;13.43;51.34;100450.81;4989668;28;19918;-91
2023/04/03 00:49:41;;;;;;;;;;;;;;;13.36;50.94;100447.06;5003782;28;19918;-90
2023/04/03 00:52:33;;;;;;;;;;;;;;;13.13;51.37;100447.47;4990272;28;19922;-90
2023/04/03 00:55:25;;;;;;;;;;;;;;;13.05;51.25;100440.16;4998859;28;19917;-90
2023/04/03 00:58:17;;;;;;;;;;;;;;;12.95;51.92;100440.59;5002770;28;19917;-91
2023/04/03 01:01:14;;;;;;;;;;;;;;;12.93;51.59;100436.59;4988657;28;19917;-90
2023/04/03 01:04:32;;;;;;;;;;;;;;;12.91;52.18;100438.84;5071965;22;19924;-90
2023/04/03 01:16:17;;;;;;;;;;;;;;;12.49;53.34;100436.22;5069076;22;19932;-89
2023/04/03 01:19:19;;;;;;;;;;;;;;;12.49;52.48;100430.78;5037175;22;19932;-90
2023/04/03 01:25:16;;;;;;;;;;;;;;;12.39;51.61;100433.91;5076031;22;19932;-90
2023/04/03 01:28:10;;;;;;;;;;;;;;;12.27;51.25;100421.00;5085005;22;19926;-90
2023/04/03 03:26:17;;;;;;;;;;;;;;;11.53;53.07;100426.25;1401146;26;19924;-85
2023/04/03 03:32:06;;;;;;;;;;;;;;;11.29;52.69;100417.91;4261450;26;19925;-85
2023/04/03 03:34:58;;;;;;;;;;;;;;;11.28;52.49;100429.91;5023948;28;19906;-86
2023/04/03 03:37:48;;;;;;;;;;;;;;;11.20;52.39;100422.59;5027659;28;19901;-86
2023/04/03 03:40:39;;;;;;;;;;;;;;;11.20;51.32;100422.59;5022831;28;19902;-85
2023/04/03 03:43:31;;;;;;;;;;;;;;;11.37;51.19;100425.25;5027647;28;19902;-84
2023/04/03 03:46:21;;;;;;;;;;;;;;;11.29;51.85;100426.88;5021453;28;19901;-84
2023/04/03 03:49:37;;;;;;;;;;;;;;;11.38;51.80;100429.53;5014341;28;19905;-84
2023/04/03 03:52:30;;;;;;;;;;;;;;;11.36;51.46;100431.81;5027804;28;19906;-84
2023/04/03 04:04:35;;;;;;;;;;;;;;;11.44;53.03;100447.31;5111688;22;19915;-86
2023/04/03 04:07:50;;;;;;;;;;;;;;;11.50;52.00;100456.88;5067353;28;19905;-85
2023/04/03 04:11:00;;;;;;;;;;;;;;;11.40;52.12;100440.91;5060627;28;19901;-85
2023/04/03 04:14:10;;;;;;;;;;;;;;;11.37;52.75;100444.31;5060568;28;19905;-85
2023/04/03 04:17:19;;;;;;;;;;;;;;;11.35;53.93;100441.09;5067239;28;19901;-85
2023/04/03 04:20:41;;;;;;;;;;;;;;;11.43;53.62;100451.13;5067226;28;19901;-84
2023/04/03 04:39:29;;;;;;;;;;;;;;;11.67;52.72;100451.38;5391057;22;19932;-87
2023/04/03 04:48:43;;;;;;;;;;;;;;;11.67;52.16;100450.56;5391501;22;19932;-88
2023/04/03 04:51:36;;;;;;;;;;;;;;;11.65;52.29;100455.53;5078524;23;19926;-87
2023/04/03 04:54:33;;;;;;;;;;;;;;;11.67;52.88;100456.00;5037138;28;20320;-88
2023/04/03 04:57:40;;;;;;;;;;;;;;;;;;;;;
2023/04/03 05:06:25;;;;;;;;;;;;;;;11.89;53.58;100469.34;5537684;22;19932;-90
2023/04/03 05:51:44;;;;;;;;;;;;;;;12.97;53.18;100511.19;5046216;22;19933;-88
2023/04/03 05:54:57;;;;;;;;;;;;;;;13.09;53.04;100505.78;5020512;28;19925;-87
2023/04/03 05:57:58;;;;;;;;;;;;;;;13.20;52.97;100504.25;5037747;28;19922;-88
2023/04/03 06:00:49;;;;;;;;;;;;;;;13.27;52.70;100508.00;5022837;28;19917;-89
2023/04/03 06:03:39;;;;;;;;;;;;;;;13.43;52.63;100510.91;5036128;28;20301;-88
2023/04/03 06:06:44;;;;;;;;;;;;;;;13.57;52.18;100508.63;5016079;28;19917;-86
2023/04/03 06:09:36;;;;;;;;;;;;;;;13.74;51.90;100504.09;5004606;28;19921;-87
2023/04/03 06:12:28;;;;;;;;;;;;;;;13.93;51.54;100507.03;4996996;28;19922;-86
2023/04/03 06:15:23;;;;;;;;;;;;;;;13.85;51.46;100505.22;4997180;28;19917;-87
2023/04/03 06:18:15;;;;;;;;;;;;;;;15.35;53.98;100507.28;5012481;28;20305;-77
2023/04/03 06:21:07;;;;;;;;;;;;;;;16.06;51.06;100514.53;4995634;28;19918;-78
2023/04/03 06:23:59;;;;;;;;;;;;;;;16.31;49.48;100514.28;5003082;28;19926;-78
2023/04/03 06:26:51;;;;;;;;;;;;;;;16.52;48.06;100512.00;5007635;28;20300;-80
2023/04/03 06:29:43;;;;;;;;;;;;;;;16.32;48.34;100516.69;4994720;28;20388;-78
2023/04/03 06:32:34;;;;;;;;;;;;;;;16.23;48.30;100514.16;5004295;28;20385;-78
2023/04/03 06:35:26;;;;;;;;;;;;;;;16.06;49.05;100511.78;5014670;28;20319;-78
2023/04/03 06:38:18;;;;;;;;;;;;;;;16.03;49.85;100512.50;5019286;28;19917;-79
2023/04/03 06:41:10;;;;;;;;;;;;;;;16.30;48.69;100513.53;5014563;28;19917;-78
2023/04/03 06:44:02;;;;;;;;;;;;;;;16.18;50.21;100514.44;5014716;28;19918;-79
2023/04/03 06:46:54;;;;;;;;;;;;;;;15.76;48.71;100516.16;5034072;28;19917;-78
2023/04/03 06:49:46;;;;;;;;;;;;;;;15.67;50.09;100521.84;5014677;28;20357;-78
2023/04/03 06:52:38;;;;;;;;;;;;;;;16.09;49.72;100519.31;5014254;28;20296;-78
2023/04/03 06:55:29;;;;;;;;;;;;;;;16.34;49.07;100522.63;4999144;28;19918;-79
2023/04/03 06:58:21;;;;;;;;;;;;;;;15.26;49.42;100520.34;5012594;28;19917;-77
2023/04/03 07:01:14;;;;;;;;;;;;;;;15.10;49.90;100525.00;5012111;28;19917;-79
2023/04/03 07:04:06;;;;;;;;;;;;;;;16.14;47.03;100523.72;5013663;28;19922;-79
2023/04/03 07:06:55;;;;;;;;;;;;;;;16.91;45.05;100527.41;5014097;28;19921;-78
2023/04/03 07:09:47;;;;;;;;;;;;;;;16.44;45.02;100519.31;5018256;28;19917;-78
2023/04/03 07:12:37;;;;;;;;;;;;;;;16.49;45.50;100527.28;5015628;28;19921;-79
2023/04/03 07:15:29;;;;;;;;;;;;;;;17.56;43.16;100532.91;5008976;28;20385;-78
2023/04/03 07:18:19;;;;;;;;;;;;;;;16.94;44.22;100537.66;5006740;28;20297;-77
2023/04/03 07:21:11;;;;;;;;;;;;;;;17.79;42.07;100536.47;5027182;28;19917;-78
2023/04/03 07:24:03;;;;;;;;;;;;;;;21.32;35.67;100545.81;5007780;28;19917;-77
2023/04/03 07:26:55;;;;;;;;;;;;;;;19.87;37.56;100542.22;5017525;28;19918;-77
2023/04/03 07:29:47;;;;;;;;;;;;;;;19.06;38.42;100547.72;5020973;28;20401;-76
2023/04/03 07:32:39;;;;;;;;;;;;;;;18.30;40.00;100547.09;5015154;28;19921;-77
2023/04/03 07:35:28;;;;;;;;;;;;;;;19.68;38.96;100556.25;5018913;28;19917;-77
2023/04/03 07:38:20;;;;;;;;;;;;;;;20.48;36.25;100558.88;5005824;28;20385;-78
2023/04/03 07:41:13;;;;;;;;;;;;;;;18.97;39.42;100559.03;5007455;28;19918;-77
2023/04/03 07:44:05;;;;;;;;;;;;;;;18.42;38.75;100570.88;5009665;28;19918;-77
2023/04/03 07:46:57;;;;;;;;;;;;;;;19.79;38.15;100559.91;5006812;28;19917;-76
2023/04/03 07:49:49;;;;;;;;;;;;;;;22.13;32.58;100551.44;5010010;28;19925;-76
2023/04/03 07:52:41;;;;;;;;;;;;;;;20.33;36.06;100550.88;5002262;28;19922;-77
2023/04/03 07:55:31;;;;;;;;;;;;;;;22.61;32.04;100562.00;5007163;28;19918;-75
2023/04/03 07:58:22;;;;;;;;;;;;;;;18.59;39.71;100557.34;4993099;28;19918;-75
2023/04/03 08:01:15;;;;;;;;;;;;;;;19.43;38.61;100567.03;4993130;28;19918;-75
2023/04/03 08:04:07;;;;;;;;;;;;;;;18.69;39.70;100562.22;5014132;28;19921;-76
2023/04/03 08:06:59;;;;;;;;;;;;;;;19.58;37.96;100557.75;5021138;28;19918;-76
2023/04/03 08:09:51;;;;;;;;;;;;;;;21.25;35.63;100573.44;5008648;28;19926;-75
2023/04/03 08:12:43;;;;;;;;;;;;;;;22.77;32.78;100572.69;5002720;28;19922;-75
2023/04/03 08:15:35;;;;;;;;;;;;;;;24.49;29.53;100567.16;5006830;28;20388;-80
2023/04/03 08:18:27;;;;;;;;;;;;;;;25.58;27.11;100571.81;4997353;28;19917;-80
2023/04/03 08:21:19;;;;;;;;;;;;;;;23.30;30.42;100578.78;4993382;28;19917;-80
2023/04/03 08:24:09;;;;;;;;;;;;;;;20.91;34.75;100568.19;4992365;28;19918;-81
2023/04/03 08:27:00;;;;;;;;;;;;;;;18.62;38.73;100564.88;4996466;28;20377;-81
2023/04/03 08:29:53;;;;;;;;;;;;;;;18.31;39.89;100565.19;4993458;28;19918;-81
2023/04/03 08:32:45;;;;;;;;;;;;;;;17.49;41.73;100569.31;4992375;28;19922;-81
2023/04/03 08:35:39;;;;;;;;;;;;;;;17.30;41.80;100572.09;4992756;28;20308;-81
2023/04/03 08:38:31;;;;;;;;;;;;;;;17.34;42.57;100569.41;4992870;28;19917;-81
2023/04/03 08:41:43;;;;;;;;;;;;;;;17.09;42.81;100571.69;4996949;28;19918;-81
2023/04/03 08:44:46;;;;;;;;;;;;;;;16.94;42.90;100567.88;4994282;28;20301;-82
2023/04/03 08:47:45;;;;;;;;;;;;;;;16.75;43.30;100570.59;4992961;28;19936;-81
2023/04/03 08:50:38;;;;;;;;;;;;;;;16.89;43.46;100570.09;4994701;28;19926;-81
2023/04/03 08:53:30;;;;;;;;;;;;;;;16.90;43.42;100561.50;4996468;28;19922;-81
2023/04/03 08:56:22;;;;;;;;;;;;;;;16.83;43.31;100569.59;5000206;28;19918;-81
2023/04/03 08:59:21;;;;;;;;;;;;;;;16.89;42.62;100570.91;4998080;28;19921;-81
2023/04/03 09:02:25;;;;;;;;;;;;;;;16.97;42.92;100569.88;5000814;28;19917;-81
2023/04/03 09:05:18;;;;;;;;;;;;;;;16.96;42.99;100567.50;4997445;28;19918;-82
2023/04/03 09:08:20;;;;;;;;;;;;;;;16.81;42.76;100562.88;4995820;28;19918;-82
2023/04/03 09:11:23;;;;;;;;;;;;;;;17.00;43.43;100563.69;4998627;28;19917;-81
2023/04/03 09:14:21;;;;;;;;;;;;;;;16.85;42.93;100561.78;4996435;28;19926;-81
2023/04/03 09:17:15;;;;;;;;;;;;;;;16.96;43.02;100565.56;5006460;28;19917;-81
2023/04/03 09:20:16;;;;;;;;;;;;;;;16.77;43.42;100568.28;5004816;28;19917;-80
2023/04/03 09:23:16;;;;;;;;;;;;;;;16.73;43.33;100561.91;5008073;28;20331;-81
2023/04/03 09:26:08;;;;;;;;;;;;;;;16.79;43.93;100551.44;5011452;28;19918;-82
2023/04/03 09:29:01;;;;;;;;;;;;;;;16.82;43.16;100556.22;5013500;28;19954;-82
2023/04/03 09:31:52;;;;;;;;;;;;;;;16.88;42.62;100561.06;5014200;28;19917;-80
2023/04/03 09:34:45;;;;;;;;;;;;;;;17.09;42.50;100566.19;5008912;28;20405;-81
2023/04/03 09:37:40;;;;;;;;;;;;;;;16.98;42.07;100560.47;5016237;28;19918;-81
2023/04/03 09:40:45;;;;;;;;;;;;;;;16.75;43.58;100569.81;5012392;28;19921;-81
2023/04/03 09:43:39;;;;;;;;;;;;;;;16.73;43.46;100564.66;5008921;28;19921;-81
2023/04/03 09:46:34;;;;;;;;;;;;;;;16.97;43.35;100558.88;4996341;28;19918;-81
2023/04/03 09:49:26;;;;;;;;;;;;;;;16.79;43.71;100563.22;4996488;28;19918;-81
2023/04/03 09:52:29;;;;;;;;;;;;;;;16.57;43.22;100567.44;5015252;28;19918;-82
2023/04/03 09:55:21;;;;;;;;;;;;;;;16.69;43.38;100552.81;5015609;28;19917;-81
2023/04/03 09:58:25;;;;;;;;;;;;;;;16.77;43.64;100567.47;5005641;28;19917;-81
2023/04/03 10:01:31;;;;;;;;;;;;;;;16.86;43.56;100562.59;5017361;28;20389;-79
2023/04/03 10:04:23;;;;;;;;;;;;;;;16.77;42.97;100554.53;5018071;28;20389;-80
2023/04/03 10:07:33;;;;;;;;;;;;;;;16.61;43.23;100545.56;4998412;28;19918;-81
2023/04/03 10:10:23;;;;;;;;;;;;;;;16.68;43.60;100541.03;5005788;28;20384;-81
2023/04/03 10:13:16;;;;;;;;;;;;;;;16.83;42.59;100542.13;5015188;28;19921;-82
2023/04/03 10:16:06;;;;;;;;;;;;;;;17.02;42.31;100544.84;5030806;28;19917;-81
2023/04/03 10:19:05;;;;;;;;;;;;;;;17.23;42.39;100543.69;5013884;28;20303;-82
2023/04/03 10:22:01;;;;;;;;;;;;;;;17.21;41.94;100546.81;5010621;28;19922;-78
2023/04/03 10:25:00;;;;;;;;;;;;;;;17.10;41.88;100532.88;5013769;28;19918;-80
2023/04/03 10:28:05;;;;;;;;;;;;;;;17.24;41.08;100531.53;5009175;28;19917;-80
2023/04/03 10:31:01;;;;;;;;;;;;;;;17.06;41.26;100533.97;5017599;28;20397;-80
2023/04/03 10:34:17;;;;;;;;;;;;;;;17.19;41.01;100542.81;5029405;28;19929;-80
2023/04/03 10:37:09;;;;;;;;;;;;;;;17.08;41.24;100535.16;5017782;28;19918;-79
2023/04/03 10:40:05;;;;;;;;;;;;;;;17.19;41.54;100529.88;5012109;28;19917;-81
2023/04/03 10:43:05;;;;;;;;;;;;;;;17.43;41.14;100531.47;5014637;28;19925;-81
2023/04/03 10:46:00;;;;;;;;;;;;;;;17.44;40.36;100533.09;5009351;28;19921;-82
2023/04/03 10:48:59;;;;;;;;;;;;;;;17.57;39.79;100520.75;5018903;28;20389;-81
2023/04/03 10:52:00;;;;;;;;;;;;;;;17.36;40.96;100528.63;4995936;28;20541;-81
2023/04/03 10:55:09;;;;;;;;;;;;;;;17.46;41.55;100526.06;5007519;28;20389;-81
2023/04/03 10:57:59;;;;;;;;;;;;;;;17.52;40.30;100518.31;5007898;28;20296;-82
2023/04/03 11:00:52;;;;;;;;;;;;;;;17.55;39.81;100517.56;5015046;28;19925;-82
2023/04/03 11:03:45;;;;;;;;;;;;;;;17.67;39.90;100516.63;5012423;28;19918;-82
2023/04/03 11:06:47;;;;;;;;;;;;;;;17.60;39.57;100509.03;5009451;28;19921;-82
2023/04/03 11:09:37;;;;;;;;;;;;;;;17.69;40.03;100512.34;5028104;28;20296;-82
2023/04/03 11:12:41;;;;;;;;;;;;;;;17.73;39.00;100510.44;5015689;28;20300;-80
2023/04/03 11:15:33;;;;;;;;;;;;;;;17.38;39.82;100505.09;4994783;28;20337;-81
2023/04/03 11:18:31;;;;;;;;;;;;;;;17.28;40.14;100507.66;5000588;28;20381;-80
2023/04/03 11:21:29;;;;;;;;;;;;;;;17.57;39.03;100493.25;4994115;28;20297;-80
2023/04/03 11:24:29;;;;;;;;;;;;;;;17.81;38.81;100497.59;4994422;28;19917;-80
2023/04/03 11:27:22;;;;;;;;;;;;;;;17.93;39.56;100503.69;4995133;28;19917;-80
2023/04/03 11:30:17;;;;;;;;;;;;;;;17.73;37.94;100496.69;4998815;28;19918;-79
2023/04/03 11:33:38;;;;;;;;;;;;;;;17.84;37.83;100496.84;4994680;28;19922;-79
2023/04/03 11:36:47;;;;;;;;;;;;;;;17.90;37.97;100496.19;4997168;28;19917;-80
2023/04/03 11:39:40;;;;;;;;;;;;;;;17.81;38.17;100486.59;5006701;28;19918;-80
2023/04/03 11:42:49;;;;;;;;;;;;;;;17.59;38.35;100490.94;5010127;28;19921;-79
2023/04/03 11:45:54;;;;;;;;;;;;;;;17.20;38.62;100489.47;5007810;28;20369;-80
2023/04/03 11:48:47;;;;;;;;;;;;;;;17.45;38.82;100476.94;5003408;28;19922;-80
2023/04/03 11:51:40;;;;;;;;;;;;;;;17.62;38.37;100479.25;5011728;28;20377;-79
2023/04/03 11:54:54;;;;;;;;;;;;;;;17.69;37.80;100475.78;5012475;28;19922;-79
2023/04/03 11:58:04;;;;;;;;;;;;;;;17.75;37.93;100477.88;5015982;28;20384;-78
2023/04/03 12:00:54;;;;;;;;;;;;;;;17.92;37.50;100466.34;5012505;28;19917;-79
2023/04/03 12:03:46;;;;;;;;;;;;;;;18.06;37.22;100468.50;5016283;28;20381;-78
2023/04/03 12:06:39;;;;;;;;;;;;;;;17.74;36.79;100470.78;5006838;28;19921;-78
2023/04/03 12:09:32;;;;;;;;;;;;;;;17.76;36.74;100473.97;5006881;28;19917;-80
2023/04/03 12:12:37;;;;;;;;;;;;;;;18.02;36.40;100459.41;5011169;28;19921;-81
2023/04/03 12:15:42;;;;;;;;;;;;;;;18.06;36.36;100464.94;5006302;28;19921;-80
2023/04/03 12:18:37;;;;;;;;;;;;;;;17.92;36.37;100454.53;5020972;28;20313;-80
2023/04/03 12:21:30;;;;;;;;;;;;;;;17.50;36.61;100449.94;5022927;28;19917;-80
2023/04/03 12:24:20;;;;;;;;;;;;;;;17.44;37.39;100447.84;5005380;28;19917;-79
2023/04/03 12:27:13;;;;;;;;;;;;;;;17.52;36.39;100438.59;5021282;28;19918;-80
2023/04/03 12:30:14;;;;;;;;;;;;;;;17.40;36.67;100438.75;5007124;28;19918;-81
2023/04/03 12:33:15;;;;;;;;;;;;;;;17.47;37.07;100444.41;5010583;28;19921;-84
2023/04/03 12:36:08;;;;;;;;;;;;;;;17.36;36.72;100437.91;5002086;28;19918;-83
2023/04/03 12:39:19;;;;;;;;;;;;;;;17.28;36.75;100438.94;5008938;28;19917;-83
2023/04/03 12:42:20;;;;;;;;;;;;;;;17.39;36.52;100434.41;4996181;28;19918;-83
2023/04/03 12:45:18;;;;;;;;;;;;;;;17.39;36.41;100431.69;4997577;28;19918;-83
2023/04/03 12:48:15;;;;;;;;;;;;;;;17.14;36.90;100439.50;4998585;28;19918;-83
2023/04/03 12:51:08;;;;;;;;;;;;;;;17.12;36.16;100430.81;4996048;28;19922;-83
2023/04/03 12:54:02;;;;;;;;;;;;;;;17.08;36.50;100421.72;4999391;28;20297;-83
2023/04/03 12:56:54;;;;;;;;;;;;;;;17.16;36.72;100417.16;4997392;28;20373;-82
2023/04/03 12:59:46;;;;;;;;;;;;;;;17.02;36.58;100420.44;4996458;28;19917;-83
2023/04/03 13:02:38;;;;;;;;;;;;;;;17.03;36.97;100424.78;4998702;28;19922;-82
2023/04/03 13:05:25;;;;;;;;;;;;;;;17.00;36.64;100425.53;5010133;28;19922;-83
2023/04/03 13:08:18;;;;;;;;;;;;;;;16.90;36.92;100421.44;5013676;28;19922;-83
2023/04/03 13:11:13;;;;;;;;;;;;;;;16.97;36.43;100421.53;4997480;28;20373;-83
2023/04/03 13:14:04;;;;;;;;;;;;;;;17.04;36.69;100421.66;4995030;28;19921;-82
2023/04/03 13:16:58;;;;;;;;;;;;;;;16.97;36.58;100421.53;4999251;28;20293;-83
2023/04/03 13:19:50;;;;;;;;;;;;;;;16.94;36.70;100421.47;4996578;28;20397;-82
2023/04/03 13:22:53;;;;;;;;;;;;;;;16.68;37.01;100420.22;4996080;28;20293;-82
2023/04/03 13:25:47;;;;;;;;;;;;;;;16.72;37.09;100417.53;4995447;28;19918;-83
2023/04/03 13:28:40;;;;;;;;;;;;;;;16.73;37.00;100413.63;4995681;28;19917;-82
2023/04/03 13:31:38;;;;;;;;;;;;;;;16.87;36.71;100405.66;4998563;28;19918;-83
2023/04/03 13:34:31;;;;;;;;;;;;;;;16.79;36.70;100403.16;4996037;28;19922;-83
2023/04/03 13:37:25;;;;;;;;;;;;;;;16.86;36.56;100403.28;4995246;28;19918;-83
2023/04/03 13:40:17;;;;;;;;;;;;;;;16.40;37.38;100403.19;4995919;28;19918;-83
2023/04/03 13:43:18;;;;;;;;;;;;;;;16.49;37.72;100403.75;4995162;28;19918;-83
2023/04/03 13:46:24;;;;;;;;;;;;;;;16.68;37.60;100408.44;4998315;28;19918;-83
2023/04/03 13:49:24;;;;;;;;;;;;;;;16.61;37.45;100405.56;4995982;28;19918;-83
2023/04/03 13:52:32;;;;;;;;;;;;;;;16.41;37.69;100407.50;4998426;28;19917;-83
2023/04/03 13:55:29;;;;;;;;;;;;;;;16.50;37.21;100407.28;5009343;28;19922;-82
2023/04/03 13:58:22;;;;;;;;;;;;;;;16.61;37.74;100400.06;4995351;28;19917;-83
2023/04/03 14:01:22;;;;;;;;;;;;;;;16.63;37.47;100392.25;4996399;28;19918;-82
2023/04/03 14:04:15;;;;;;;;;;;;;;;16.35;38.21;100394.44;4995255;28;19918;-82
2023/04/03 14:07:07;;;;;;;;;;;;;;;16.22;38.08;100380.06;5000935;28;19918;-83
2023/04/03 14:09:59;;;;;;;;;;;;;;;16.42;38.19;100389.06;4995284;28;19918;-83
2023/04/03 14:12:51;;;;;;;;;;;;;;;16.51;37.73;100386.91;4998893;28;19922;-83
2023/04/03 14:15:43;;;;;;;;;;;;;;;16.29;38.28;100379.41;4994709;28;19917;-83
2023/04/03 14:18:35;;;;;;;;;;;;;;;16.47;38.01;100388.78;4994400;28;20297;-83
2023/04/03 14:21:27;;;;;;;;;;;;;;;16.48;38.40;100382.13;4997720;28;20285;-83
2023/04/03 14:24:19;;;;;;;;;;;;;;;16.63;37.99;100386.78;4994875;28;20185;-82
2023/04/03 14:27:14;;;;;;;;;;;;;;;16.33;38.89;100386.56;4994798;28;20214;-83
2023/04/03 14:30:04;;;;;;;;;;;;;;;16.23;38.77;100382.44;5010583;28;19918;-83
2023/04/03 14:32:56;;;;;;;;;;;;;;;16.39;38.27;100378.84;4995055;28;19918;-83
2023/04/03 14:35:48;;;;;;;;;;;;;;;16.45;38.23;100377.38;5008084;28;20297;-83
2023/04/03 14:38:38;;;;;;;;;;;;;;;16.46;38.57;100362.47;5010126;28;19918;-83
2023/04/03 14:41:30;;;;;;;;;;;;;;;16.31;38.28;100372.41;4993756;28;19918;-82
2023/04/03 14:44:19;;;;;;;;;;;;;;;16.33;38.37;100370.09;4994214;28;19918;-83
2023/04/03 14:47:13;;;;;;;;;;;;;;;16.15;38.45;100375.22;4995516;28;19918;-83
2023/04/03 14:50:05;;;;;;;;;;;;;;;16.11;39.03;100371.59;4996786;28;19918;-83
2023/04/03 14:52:58;;;;;;;;;;;;;;;16.10;38.25;100372.00;4996760;28;20377;-83
2023/04/03 14:55:51;;;;;;;;;;;;;;;16.09;38.54;100359.41;4993664;28;19917;-83
2023/04/03 14:58:43;;;;;;;;;;;;;;;16.35;38.13;100364.25;4994254;28;19918;-83
2023/04/03 15:01:35;;;;;;;;;;;;;;;16.23;37.91;100354.22;5009247;28;19918;-83
2023/04/03 15:04:27;;;;;;;;;;;;;;;16.30;38.34;100359.06;4993597;28;20329;-83
2023/04/03 15:07:19;;;;;;;;;;;;;;;16.45;38.36;100355.44;4996888;28;19910;-83
2023/04/03 15:10:29;;;;;;;;;;;;;;;16.57;38.18;100352.50;4994780;28;20374;-82
2023/04/03 15:13:21;;;;;;;;;;;;;;;16.62;37.21;100357.72;4997436;28;19921;-83
2023/04/03 15:16:23;;;;;;;;;;;;;;;16.33;37.69;100353.63;4995625;28;19918;-80
2023/04/03 15:19:15;;;;;;;;;;;;;;;16.24;38.02;100362.09;4993898;28;19918;-80
2023/04/03 15:22:07;;;;;;;;;;;;;;;16.15;37.60;100363.47;4995853;28;19918;-80
2023/04/03 15:24:59;;;;;;;;;;;;;;;16.30;37.63;100354.38;5006699;28;19917;-81
2023/04/03 15:27:51;;;;;;;;;;;;;;;16.22;38.01;100364.38;5005551;28;20285;-79
2023/04/03 15:30:43;;;;;;;;;;;;;;;16.15;38.49;100369.72;5011197;28;19917;-80
2023/04/03 15:33:36;;;;;;;;;;;;;;;16.11;37.99;100362.59;5019209;28;19921;-80
2023/04/03 15:36:28;;;;;;;;;;;;;;;16.09;38.54;100354.72;5016597;28;20300;-80
2023/04/03 15:39:20;;;;;;;;;;;;;;;16.04;37.81;100362.44;5003088;28;19921;-81
2023/04/03 15:42:12;;;;;;;;;;;;;;;15.77;37.70;100354.06;5001522;28;19918;-81
2023/04/03 15:45:04;;;;;;;;;;;;;;;15.80;38.07;100356.06;5008192;28;19917;-81
2023/04/03 15:47:56;;;;;;;;;;;;;;;15.97;37.71;100356.81;5011368;28;19918;-82
2023/04/03 15:50:45;;;;;;;;;;;;;;;15.83;37.53;100349.09;4996386;28;20321;-81
2023/04/03 15:53:35;;;;;;;;;;;;;;;15.79;37.25;100349.00;4995091;28;20304;-82
2023/04/03 15:56:27;;;;;;;;;;;;;;;15.92;37.22;100355.16;5021839;28;19947;-81
2023/04/03 15:59:19;;;;;;;;;;;;;;;15.91;36.97;100352.75;4997713;28;19917;-82
2023/04/03 16:02:12;;;;;;;;;;;;;;;15.69;37.39;100362.50;5022787;28;19917;-82
2023/04/03 16:05:04;;;;;;;;;;;;;;;15.74;37.06;100360.25;4995626;28;20381;-82
2023/04/03 16:07:56;;;;;;;;;;;;;;;15.67;37.07;100349.13;5007112;28;20380;-85
2023/04/03 16:10:45;;;;;;;;;;;;;;;15.52;37.28;100357.38;5023976;28;19918;-82
2023/04/03 16:13:35;;;;;;;;;;;;;;;15.32;37.04;100357.31;5011451;28;20397;-83
2023/04/03 16:16:28;;;;;;;;;;;;;;;15.46;37.26;100353.28;4994825;28;19922;-82
2023/04/03 16:19:20;;;;;;;;;;;;;;;15.58;36.46;100353.22;5012420;28;19918;-81
2023/04/03 16:22:12;;;;;;;;;;;;;;;15.67;36.20;100362.84;5012014;28;20377;-82
2023/04/03 16:25:01;;;;;;;;;;;;;;;15.76;36.35;100351.66;5011422;28;19917;-79
2023/04/03 16:27:54;;;;;;;;;;;;;;;15.64;36.50;100354.53;5001528;28;19917;-80
2023/04/03 16:30:46;;;;;;;;;;;;;;;15.60;36.41;100351.69;5015881;28;19917;-81
2023/04/03 16:33:38;;;;;;;;;;;;;;;15.56;36.58;100355.50;5013207;28;19925;-79
2023/04/03 16:36:27;;;;;;;;;;;;;;;15.40;36.45;100361.00;5017088;28;19917;-79
2023/04/03 16:39:17;;;;;;;;;;;;;;;15.48;36.72;100361.97;5014805;28;19917;-81
2023/04/03 16:42:08;;;;;;;;;;;;;;;15.21;36.17;100363.66;5012465;28;20500;-80
2023/04/03 16:45:00;;;;;;;;;;;;;;;15.22;36.73;100357.84;5014281;28;19921;-80
2023/04/03 16:47:52;;;;;;;;;;;;;;;15.21;35.69;100372.69;5020048;28;19917;-79
2023/04/03 16:50:44;;;;;;;;;;;;;;;15.17;35.83;100366.34;5008734;28;19918;-81
2023/04/03 16:53:36;;;;;;;;;;;;;;;15.12;35.58;100376.75;4995513;28;19921;-79
2023/04/03 16:56:31;;;;;;;;;;;;;;;15.14;35.29;100374.44;5011466;28;19921;-80
2023/04/03 16:59:26;;;;;;;;;;;;;;;15.04;35.63;100378.50;5023127;28;19918;-81
2023/04/03 17:02:18;;;;;;;;;;;;;;;15.02;36.02;100389.03;5007445;28;19921;-80
2023/04/03 17:05:06;;;;;;;;;;;;;;;14.88;35.79;100388.69;5007048;28;19921;-80
2023/04/03 17:07:58;;;;;;;;;;;;;;;15.00;36.64;100396.81;5014336;28;19921;-79
2023/04/03 17:10:49;;;;;;;;;;;;;;;14.97;36.14;100394.78;5010225;28;20389;-79
2023/04/03 17:13:41;;;;;;;;;;;;;;;14.92;35.97;100398.56;5023195;28;19924;-80
2023/04/03 17:16:34;;;;;;;;;;;;;;;15.01;35.63;100400.34;5018946;28;19917;-80
2023/04/03 17:19:23;;;;;;;;;;;;;;;14.99;35.55;100403.41;5014639;28;20393;-80
2023/04/03 17:22:15;;;;;;;;;;;;;;;14.99;35.88;100406.16;5022367;28;19917;-80
2023/04/03 17:25:07;;;;;;;;;;;;;;;14.91;35.41;100401.66;5002331;28;19918;-81
2023/04/03 17:27:59;;;;;;;;;;;;;;;14.92;34.77;100406.78;5004005;28;19918;-80
2023/04/03 17:30:49;;;;;;;;;;;;;;;14.80;34.96;100398.63;4999410;28;19918;-80
2023/04/03 17:33:41;;;;;;;;;;;;;;;14.60;34.94;100405.13;4995633;28;19921;-80
2023/04/03 17:36:33;;;;;;;;;;;;;;;14.55;34.92;100408.91;5001992;28;20393;-79
2023/04/03 17:39:25;;;;;;;;;;;;;;;14.70;34.57;100409.31;5007935;28;19917;-79
2023/04/03 17:42:20;;;;;;;;;;;;;;;14.73;34.23;100419.56;5011583;28;19921;-80
2023/04/03 17:45:12;;;;;;;;;;;;;;;14.69;33.99;100415.91;5021047;28;19917;-81
2023/04/03 17:48:01;;;;;;;;;;;;;;;14.61;34.13;100423.16;5008522;28;19918;-81
2023/04/03 17:50:54;;;;;;;;;;;;;;;14.60;34.28;100426.22;5013782;28;19917;-81
2023/04/03 17:53:44;;;;;;;;;;;;;;;14.59;34.48;100435.56;5018253;28;19929;-80
2023/04/03 17:56:34;;;;;;;;;;;;;;;14.48;34.37;100436.06;5016500;28;20320;-80
2023/04/03 17:59:26;;;;;;;;;;;;;;;14.60;34.19;100443.44;5014836;28;19918;-81
2023/04/03 18:02:18;;;;;;;;;;;;;;;14.52;34.20;100438.94;5015343;28;19921;-81
2023/04/03 18:05:07;;;;;;;;;;;;;;;14.50;34.19;100450.22;5015825;28;20064;-81
2023/04/03 18:08:01;;;;;;;;;;;;;;;14.42;34.63;100453.91;5013423;28;19917;-80
2023/04/03 18:10:53;;;;;;;;;;;;;;;14.36;34.74;100454.44;5008826;28;19918;-81
2023/04/03 18:13:46;;;;;;;;;;;;;;;14.29;34.62;100462.44;5014502;28;19917;-81
2023/04/03 18:16:38;;;;;;;;;;;;;;;14.38;34.93;100466.66;5018699;28;20396;-79
2023/04/03 18:19:30;;;;;;;;;;;;;;;14.29;34.83;100471.44;5016537;28;19918;-81
2023/04/03 18:22:20;;;;;;;;;;;;;;;14.17;34.67;100479.66;5014441;28;19918;-80
2023/04/03 18:25:13;;;;;;;;;;;;;;;13.86;34.88;100480.31;5030014;28;19921;-79
2023/04/03 18:28:05;;;;;;;;;;;;;;;13.86;34.85;100476.78;5027487;28;19918;-79